Time;durP1;ratioP1;P1;durP2;ratioP2;P2;SDS_P1;SDS_P2;PMS_P1;PMS_P2;Temp;Humidity;BMP_temperature;BMP_pressure;BME280_temperature;BME280_humidity;BME280_pressure;Samples;Min_cycle;Max_cycle;Signal;HPM_P1;HPM_P2
2022/06/05 00:00:10;;;;;;;31.35;5.18;;;;;;;;;;4964507;28;20033;-71
2022/06/05 00:02:52;;;;;;;24.02;5.40;;;;;;;;;;4982748;28;20254;-71
2022/06/05 00:05:29;;;;;;;28.10;6.10;;;;;;;;;;4988151;28;20013;-71
2022/06/05 00:08:15;;;;;;;28.17;5.40;;;;;;;;;;4982338;28;20545;-71
2022/06/05 00:10:58;;;;;;;32.13;5.88;;;;;;;;;;4976564;28;20064;-70
2022/06/05 00:13:37;;;;;;;24.50;4.70;;;;;;;;;;4986199;28;20030;-69
2022/06/05 00:16:05;;;;;;;29.92;5.32;;;;;;;;;;4980540;28;20064;-70
2022/06/05 00:18:34;;;;;;;29.08;5.57;;;;;;;;;;4990605;28;20056;-69
2022/06/05 00:21:02;;;;;;;29.50;5.80;;;;;;;;;;4985503;28;20458;-71
2022/06/05 00:23:28;;;;;;;27.35;6.32;;;;;;;;;;4978409;28;20026;-72
2022/06/05 00:26:15;;;;;;;28.45;6.03;;;;;;;;;;4978630;28;20040;-70
2022/06/05 00:28:57;;;;;;;30.88;5.55;;;;;;;;;;4978037;28;20021;-71
2022/06/05 00:31:23;;;;;;;32.75;6.00;;;;;;;;;;4963243;28;20441;-71
2022/06/05 00:33:50;;;;;;;;;;;;;;;;;;4959440;28;20042;-70
2022/06/05 00:36:38;;;;;;;32.55;5.63;;;;;;;;;;4981543;28;20359;-70
2022/06/05 00:39:23;;;;;;;31.40;5.82;;;;;;;;;;4961740;28;20400;-69
2022/06/05 00:42:11;;;;;;;29.95;5.28;;;;;;;;;;4981451;28;20030;-71
2022/06/05 00:44:56;;;;;;;31.15;6.43;;;;;;;;;;4971158;28;20028;-71
2022/06/05 00:47:25;;;;;;;35.25;6.53;;;;;;;;;;4979760;28;20609;-71
2022/06/05 00:49:57;;;;;;;28.40;5.85;;;;;;;;;;4981242;28;20551;-72
2022/06/05 00:52:26;;;;;;;25.73;5.88;;;;;;;;;;4971382;28;20464;-70
2022/06/05 00:54:52;;;;;;;31.00;5.88;;;;;;;;;;4965753;28;20362;-70
2022/06/05 00:57:22;;;;;;;30.95;5.65;;;;;;;;;;4985274;28;20026;-71
2022/06/05 00:59:49;;;;;;;23.63;4.93;;;;;;;;;;4983156;28;20030;-70
2022/06/05 01:02:15;;;;;;;26.42;6.10;;;;;;;;;;4998826;28;20056;-70
2022/06/05 01:04:43;;;;;;;33.33;6.15;;;;;;;;;;4975788;28;20028;-68
2022/06/05 01:07:10;;;;;;;25.05;6.00;;;;;;;;;;4998786;28;20030;-71
2022/06/05 01:09:37;;;;;;;33.00;5.78;;;;;;;;;;4995407;28;20029;-72
2022/06/05 01:12:03;;;;;;;27.75;6.05;;;;;;;;;;4999874;28;20029;-72
2022/06/05 01:14:42;;;;;;;28.35;6.20;;;;;;;;;;4987313;28;20068;-70
2022/06/05 01:17:22;;;;;;;27.92;5.82;;;;;;;;;;4992157;28;20025;-70
2022/06/05 01:20:08;;;;;;;26.85;4.93;;;;;;;;;;4989439;28;20034;-70
2022/06/05 01:22:47;;;;;;;33.05;6.00;;;;;;;;;;5004385;28;20426;-70
2022/06/05 01:25:16;;;;;;;24.77;5.53;;;;;;;;;;5012225;28;20033;-76
2022/06/05 01:27:43;;;;;;;27.90;5.88;;;;;;;;;;5004927;28;20392;-77
2022/06/05 01:30:13;;;;;;;28.83;5.97;;;;;;;;;;4994090;28;20084;-76
2022/06/05 01:32:43;;;;;;;30.15;6.03;;;;;;;;;;5008266;28;20502;-76
2022/06/05 01:35:21;;;;;;;22.33;5.78;;;;;;;;;;4980043;28;20041;-77
2022/06/05 01:37:50;;;;;;;31.02;5.78;;;;;;;;;;4995936;28;20034;-76
2022/06/05 01:40:22;;;;;;;29.55;6.05;;;;;;;;;;4984885;28;20449;-76
2022/06/05 01:42:51;;;;;;;28.02;6.05;;;;;;;;;;5000206;28;20025;-76
2022/06/05 01:45:23;;;;;;;29.75;6.13;;;;;;;;;;4980028;28;20022;-76
2022/06/05 01:47:53;;;;;;;24.27;5.45;;;;;;;;;;4990990;28;20025;-76
2022/06/05 01:50:27;;;;;;;27.50;5.88;;;;;;;;;;5001600;28;20457;-79
2022/06/05 01:53:06;;;;;;;23.33;5.90;;;;;;;;;;4999254;28;20021;-76
2022/06/05 01:55:41;;;;;;;29.13;5.78;;;;;;;;;;4976397;28;20108;-76
2022/06/05 01:58:12;;;;;;;30.00;6.30;;;;;;;;;;4997771;28;20175;-77
2022/06/05 02:00:39;;;;;;;27.58;6.05;;;;;;;;;;4995591;28;20380;-76
2022/06/05 02:03:10;;;;;;;27.15;5.68;;;;;;;;;;4997581;28;20452;-77
2022/06/05 02:05:44;;;;;;;30.02;6.05;;;;;;;;;;4993967;28;20021;-75
2022/06/05 02:08:15;;;;;;;26.40;5.75;;;;;;;;;;4996998;28;20064;-78
2022/06/05 02:11:18;;;;;;;35.05;6.22;;;;;;;;;;4978855;28;20689;-77
2022/06/05 02:13:44;;;;;;;25.50;6.25;;;;;;;;;;4914346;28;20273;-76
2022/06/05 02:16:12;;;;;;;;;;;;;;;;;;4910372;28;20043;-76
2022/06/05 02:18:39;;;;;;;25.05;6.18;;;;;;;;;;4917273;28;20343;-76
2022/06/05 02:21:07;;;;;;;27.65;7.03;;;;;;;;;;4919112;28;20130;-77
2022/06/05 02:23:36;;;;;;;26.98;6.30;;;;;;;;;;4902704;28;20031;-76
2022/06/05 02:26:04;;;;;;;22.83;6.28;;;;;;;;;;4921594;28;20573;-76
2022/06/05 02:28:33;;;;;;;27.15;7.32;;;;;;;;;;4916981;28;20054;-76
2022/06/05 02:31:19;;;;;;;27.90;6.88;;;;;;;;;;4914489;28;20046;-76
2022/06/05 02:34:03;;;;;;;27.45;6.50;;;;;;;;;;4918164;28;21778;-76
2022/06/05 02:36:48;;;;;;;26.92;6.65;;;;;;;;;;4913971;28;20031;-77
2022/06/05 02:39:17;;;;;;;25.48;6.38;;;;;;;;;;4921329;28;20034;-76
2022/06/05 02:42:05;;;;;;;28.27;6.20;;;;;;;;;;4916047;28;20043;-77
2022/06/05 02:44:52;;;;;;;28.40;6.68;;;;;;;;;;4896267;28;20147;-77
2022/06/05 02:47:38;;;;;;;30.10;6.38;;;;;;;;;;4929180;28;20120;-76
2022/06/05 02:50:18;;;;;;;35.05;6.88;;;;;;;;;;4997580;28;20034;-76
2022/06/05 02:52:45;;;;;;;25.13;6.80;;;;;;;;;;4981244;28;20159;-76
2022/06/05 02:55:15;;;;;;;32.15;7.65;;;;;;;;;;4995517;28;20052;-76
2022/06/05 02:57:42;;;;;;;23.25;5.85;;;;;;;;;;5000192;28;20077;-76
2022/06/05 03:00:10;;;;;;;24.13;6.05;;;;;;;;;;5004247;28;20026;-76
2022/06/05 03:05:21;;;;;;;22.58;5.53;;;;;;;;;;5001071;28;20029;-76
2022/06/05 03:07:47;;;;;;;;;;;;;;;;;;4985194;28;20053;-76
2022/06/05 03:10:14;;;;;;;22.83;5.47;;;;;;;;;;4988643;28;20055;-75
2022/06/05 03:12:40;;;;;;;29.83;6.32;;;;;;;;;;4975566;28;20095;-76
2022/06/05 03:15:06;;;;;;;29.95;6.00;;;;;;;;;;4995973;28;20470;-75
2022/06/05 03:17:33;;;;;;;24.42;5.57;;;;;;;;;;4981672;28;20041;-76
2022/06/05 03:19:59;;;;;;;23.83;6.10;;;;;;;;;;5002240;28;20044;-76
2022/06/05 03:22:26;;;;;;;25.23;6.03;;;;;;;;;;5000752;28;20056;-76
2022/06/05 03:24:53;;;;;;;24.30;5.43;;;;;;;;;;4982876;28;20049;-76
2022/06/05 03:27:19;;;;;;;29.23;5.88;;;;;;;;;;4986192;28;20021;-76
2022/06/05 03:29:46;;;;;;;29.90;6.10;;;;;;;;;;5001721;28;22070;-76
2022/06/05 03:32:12;;;;;;;21.50;5.28;;;;;;;;;;4982699;28;20033;-76
2022/06/05 03:34:38;;;;;;;26.25;5.90;;;;;;;;;;4983902;28;20460;-76
2022/06/05 03:37:04;;;;;;;;;;;;;;;;;;4987424;28;20037;-76
2022/06/05 03:39:31;;;;;;;28.35;5.75;;;;;;;;;;4981389;28;19917;-76
2022/06/05 03:41:57;;;;;;;26.17;6.15;;;;;;;;;;4985834;28;20064;-76
2022/06/05 03:44:24;;;;;;;28.75;6.78;;;;;;;;;;5000722;28;20099;-76
2022/06/05 03:46:51;;;;;;;;;;;;;;;;;;4982312;28;20029;-78
2022/06/05 03:49:17;;;;;;;28.45;6.05;;;;;;;;;;4989232;28;19967;-76
2022/06/05 03:51:45;;;;;;;29.70;6.63;;;;;;;;;;4980772;28;20298;-76
2022/06/05 03:54:11;;;;;;;26.85;5.32;;;;;;;;;;4985025;28;20124;-76
2022/06/05 03:56:39;;;;;;;29.35;6.90;;;;;;;;;;4997794;28;20044;-76
2022/06/05 03:59:06;;;;;;;27.38;6.63;;;;;;;;;;4969722;28;20049;-76
2022/06/05 04:01:35;;;;;;;29.00;6.43;;;;;;;;;;4963376;28;20038;-77
2022/06/05 04:04:03;;;;;;;29.73;6.30;;;;;;;;;;4961148;28;20030;-76
2022/06/05 04:06:31;;;;;;;25.13;5.78;;;;;;;;;;4977292;28;20705;-75
2022/06/05 04:09:00;;;;;;;30.25;6.38;;;;;;;;;;4981825;28;20057;-76
2022/06/05 04:11:28;;;;;;;26.20;5.95;;;;;;;;;;4971550;28;20062;-76
2022/06/05 04:13:55;;;;;;;30.17;5.72;;;;;;;;;;4983366;28;20047;-75
2022/06/05 04:16:24;;;;;;;22.80;5.60;;;;;;;;;;4964230;28;20036;-76
2022/06/05 04:18:52;;;;;;;22.25;5.20;;;;;;;;;;4964718;28;20033;-76
2022/06/05 04:21:22;;;;;;;28.20;5.95;;;;;;;;;;4977487;28;20121;-75
2022/06/05 04:23:50;;;;;;;21.52;5.25;;;;;;;;;;4956202;28;20079;-76
2022/06/05 04:26:18;;;;;;;24.88;5.93;;;;;;;;;;4980775;28;20461;-75
2022/06/05 04:28:46;;;;;;;28.17;6.28;;;;;;;;;;4961170;28;20114;-76
2022/06/05 04:31:21;;;;;;;28.15;5.53;;;;;;;;;;4982069;28;20026;-76
2022/06/05 04:33:49;;;;;;;25.70;5.57;;;;;;;;;;4959880;28;20103;-76
2022/06/05 04:36:17;;;;;;;24.52;5.60;;;;;;;;;;4963351;28;20026;-77
2022/06/05 04:38:44;;;;;;;23.60;5.88;;;;;;;;;;4975414;28;20436;-76
2022/06/05 04:41:12;;;;;;;24.83;4.95;;;;;;;;;;4961467;28;20026;-75
2022/06/05 04:43:39;;;;;;;23.50;4.82;;;;;;;;;;4979573;28;20030;-76
2022/06/05 04:46:08;;;;;;;21.52;5.18;;;;;;;;;;4964295;28;20212;-76
2022/06/05 04:48:35;;;;;;;25.08;5.28;;;;;;;;;;4981064;28;20380;-78
2022/06/05 04:51:06;;;;;;;24.48;4.78;;;;;;;;;;4966812;28;20072;-77
2022/06/05 04:53:34;;;;;;;24.17;5.07;;;;;;;;;;4978465;28;20120;-78
2022/06/05 04:56:07;;;;;;;21.73;5.07;;;;;;;;;;4983480;28;20045;-76
2022/06/05 04:58:34;;;;;;;22.17;4.65;;;;;;;;;;4985672;28;20535;-77
2022/06/05 05:01:00;;;;;;;22.13;5.05;;;;;;;;;;5002874;28;20116;-76
2022/06/05 05:03:27;;;;;;;21.80;4.53;;;;;;;;;;4977863;28;20029;-76
2022/06/05 05:05:53;;;;;;;18.55;4.32;;;;;;;;;;4976500;28;20434;-76
2022/06/05 05:08:20;;;;;;;23.35;4.60;;;;;;;;;;4981111;28;20036;-78
2022/06/05 05:10:46;;;;;;;26.15;5.10;;;;;;;;;;4995829;28;20134;-75
2022/06/05 05:13:12;;;;;;;21.52;4.75;;;;;;;;;;4985800;28;20064;-75
2022/06/05 05:15:38;;;;;;;;;;;;;;;;;;4987136;28;20346;-78
2022/06/05 05:18:04;;;;;;;18.05;4.13;;;;;;;;;;4999672;28;20386;-75
2022/06/05 05:20:30;;;;;;;;;;;;;;;;;;4978287;28;20119;-75
2022/06/05 05:22:56;;;;;;;24.50;4.75;;;;;;;;;;5000333;28;20309;-77
2022/06/05 05:25:23;;;;;;;20.80;4.72;;;;;;;;;;5002302;28;20399;-76
2022/06/05 05:27:49;;;;;;;23.27;4.35;;;;;;;;;;4999236;28;20482;-76
2022/06/05 05:30:15;;;;;;;17.98;4.10;;;;;;;;;;4983144;28;20038;-76
2022/06/05 05:32:41;;;;;;;;;;;;;;;;;;4993357;28;20313;-76
2022/06/05 05:35:08;;;;;;;20.27;4.50;;;;;;;;;;4999821;28;19913;-76
2022/06/05 05:37:34;;;;;;;18.33;4.40;;;;;;;;;;4977793;28;20387;-76
2022/06/05 05:42:45;;;;;;;21.27;4.75;;;;;;;;;;4998403;28;19924;-77
2022/06/05 05:45:11;;;;;;;18.17;4.20;;;;;;;;;;5008621;28;20471;-76
2022/06/05 05:47:40;;;;;;;17.27;4.18;;;;;;;;;;4974892;28;20040;-77
2022/06/05 05:50:11;;;;;;;20.42;4.50;;;;;;;;;;4982654;28;20053;-76
2022/06/05 05:52:37;;;;;;;21.17;4.30;;;;;;;;;;4973046;28;20049;-77
2022/06/05 05:55:05;;;;;;;20.02;5.20;;;;;;;;;;4983678;28;20330;-77
2022/06/05 05:57:31;;;;;;;21.92;4.53;;;;;;;;;;4976579;28;20025;-77
2022/06/05 05:59:59;;;;;;;21.67;5.13;;;;;;;;;;5000903;28;20534;-76
2022/06/05 06:02:30;;;;;;;15.75;3.60;;;;;;;;;;4999384;28;20507;-77
2022/06/05 06:04:57;;;;;;;23.15;4.65;;;;;;;;;;4999706;28;20087;-76
2022/06/05 06:07:25;;;;;;;23.17;4.30;;;;;;;;;;5001070;28;20482;-76
2022/06/05 06:09:53;;;;;;;20.88;4.78;;;;;;;;;;4982233;28;20029;-76
2022/06/05 06:12:20;;;;;;;26.00;5.05;;;;;;;;;;4978844;28;20554;-76
2022/06/05 06:14:48;;;;;;;23.20;5.22;;;;;;;;;;4992310;28;20161;-76
2022/06/05 06:17:16;;;;;;;21.98;4.47;;;;;;;;;;5001235;28;20016;-76
2022/06/05 06:19:43;;;;;;;19.77;4.63;;;;;;;;;;4995299;28;20616;-75
2022/06/05 06:22:10;;;;;;;23.63;5.35;;;;;;;;;;4979724;28;20151;-76
2022/06/05 06:24:38;;;;;;;25.48;5.03;;;;;;;;;;4993712;28;20183;-75
2022/06/05 06:27:05;;;;;;;20.65;4.93;;;;;;;;;;4994310;28;20060;-76
2022/06/05 06:29:32;;;;;;;22.10;4.78;;;;;;;;;;4995799;28;20048;-75
2022/06/05 06:32:00;;;;;;;21.08;4.55;;;;;;;;;;4985649;28;20087;-77
2022/06/05 06:34:28;;;;;;;23.73;4.80;;;;;;;;;;5001324;28;20582;-75
2022/06/05 06:36:55;;;;;;;24.20;4.70;;;;;;;;;;4985209;28;20033;-75
2022/06/05 06:39:23;;;;;;;23.17;4.68;;;;;;;;;;5001629;28;20038;-76
2022/06/05 06:41:50;;;;;;;22.25;4.88;;;;;;;;;;4982297;28;20035;-76
2022/06/05 06:44:18;;;;;;;18.00;4.30;;;;;;;;;;4997369;28;20029;-76
2022/06/05 06:46:45;;;;;;;20.77;4.18;;;;;;;;;;4981063;28;20030;-76
2022/06/05 06:49:13;;;;;;;21.08;4.03;;;;;;;;;;4982627;28;20232;-76
2022/06/05 06:51:40;;;;;;;19.80;4.90;;;;;;;;;;4980720;28;20039;-75
2022/06/05 06:54:08;;;;;;;21.40;4.38;;;;;;;;;;4998219;28;20036;-76
2022/06/05 06:56:35;;;;;;;23.25;4.45;;;;;;;;;;4996594;28;20754;-76
2022/06/05 06:59:01;;;;;;;22.23;4.22;;;;;;;;;;4988384;28;20511;-75
2022/06/05 07:01:28;;;;;;;18.40;4.20;;;;;;;;;;4983693;28;20033;-77
2022/06/05 07:03:54;;;;;;;15.23;3.55;;;;;;;;;;4983027;28;20064;-76
2022/06/05 07:06:20;;;;;;;21.30;3.78;;;;;;;;;;4986025;28;20112;-77
2022/06/05 07:08:47;;;;;;;15.57;3.88;;;;;;;;;;4982785;28;20798;-77
2022/06/05 07:11:14;;;;;;;17.08;3.85;;;;;;;;;;4968892;28;20683;-77
2022/06/05 07:13:40;;;;;;;16.90;3.60;;;;;;;;;;4981750;28;20793;-76
2022/06/05 07:16:07;;;;;;;17.85;4.10;;;;;;;;;;4985579;28;20433;-76
2022/06/05 07:18:33;;;;;;;19.40;3.60;;;;;;;;;;4983660;28;20439;-76
2022/06/05 07:21:06;;;;;;;18.80;3.70;;;;;;;;;;4972627;28;20033;-76
2022/06/05 07:23:33;;;;;;;20.52;3.85;;;;;;;;;;4985727;28;20405;-76
2022/06/05 07:26:02;;;;;;;14.40;3.55;;;;;;;;;;4966037;28;20593;-76
2022/06/05 07:28:29;;;;;;;15.95;3.25;;;;;;;;;;4963313;28;20026;-76
2022/06/05 07:30:55;;;;;;;14.38;3.10;;;;;;;;;;4987808;28;20029;-78
2022/06/05 07:33:21;;;;;;;17.55;3.95;;;;;;;;;;4991294;28;20417;-77
2022/06/05 07:35:55;;;;;;;17.23;3.33;;;;;;;;;;4982802;28;20045;-76
2022/06/05 07:38:21;;;;;;;18.00;4.00;;;;;;;;;;4968190;28;20523;-77
2022/06/05 07:40:47;;;;;;;16.52;3.67;;;;;;;;;;4978999;28;20042;-77
2022/06/05 07:43:13;;;;;;;15.93;3.45;;;;;;;;;;4984814;28;20101;-76
2022/06/05 07:45:49;;;;;;;14.40;3.50;;;;;;;;;;4965201;28;20037;-76
2022/06/05 07:48:18;;;;;;;14.02;3.67;;;;;;;;;;4992489;28;20395;-73
2022/06/05 07:56:15;;;;;;;16.77;3.45;;;;;;;;;;4986066;28;20695;-73
2022/06/05 07:58:43;;;;;;;18.55;3.70;;;;;;;;;;4970788;28;20374;-72
2022/06/05 08:01:10;;;;;;;16.90;3.63;;;;;;;;;;5001005;28;20029;-72
2022/06/05 08:03:38;;;;;;;18.40;3.63;;;;;;;;;;5003744;28;20049;-72
2022/06/05 08:06:08;;;;;;;15.68;3.58;;;;;;;;;;5006433;28;20033;-71
2022/06/05 08:08:39;;;;;;;18.38;3.88;;;;;;;;;;4981975;28;20339;-70
2022/06/05 08:11:12;;;;;;;17.60;3.97;;;;;;;;;;4991095;28;20135;-71
2022/06/05 08:13:39;;;;;;;17.83;3.92;;;;;;;;;;5008704;28;20125;-72
2022/06/05 08:16:05;;;;;;;18.83;3.50;;;;;;;;;;4988496;28;20141;-72
2022/06/05 08:18:33;;;;;;;16.13;3.17;;;;;;;;;;4999847;28;20045;-70
2022/06/05 08:21:00;;;;;;;19.98;4.13;;;;;;;;;;4992730;28;20072;-72
2022/06/05 08:23:28;;;;;;;20.13;3.85;;;;;;;;;;4974767;28;20165;-72
2022/06/05 08:25:56;;;;;;;18.27;3.67;;;;;;;;;;4984694;28;20120;-72
2022/06/05 08:28:25;;;;;;;16.90;3.30;;;;;;;;;;5003216;28;20048;-71
2022/06/05 08:30:56;;;;;;;14.40;3.15;;;;;;;;;;4995489;28;20320;-71
2022/06/05 08:33:24;;;;;;;20.45;3.80;;;;;;;;;;5004793;28;20041;-71
2022/06/05 08:36:00;;;;;;;16.85;3.47;;;;;;;;;;4999898;28;20040;-71
2022/06/05 08:41:28;;;;;;;14.70;3.03;;;;;;;;;;5009034;28;20257;-71
2022/06/05 08:44:13;;;;;;;17.00;3.92;;;;;;;;;;5000808;28;20938;-70
2022/06/05 08:46:50;;;;;;;16.52;3.53;;;;;;;;;;4977682;28;20029;-70
2022/06/05 08:49:33;;;;;;;20.70;4.30;;;;;;;;;;4988228;28;20090;-70
2022/06/05 08:52:17;;;;;;;19.38;3.53;;;;;;;;;;4980477;28;20475;-71
2022/06/05 08:55:04;;;;;;;16.92;3.47;;;;;;;;;;4984842;28;20041;-71
2022/06/05 08:57:35;;;;;;;17.95;3.65;;;;;;;;;;4975138;28;20041;-71
2022/06/05 09:00:13;;;;;;;16.17;3.17;;;;;;;;;;5006545;28;20392;-71
2022/06/05 09:02:48;;;;;;;15.55;3.35;;;;;;;;;;4985570;28;20029;-73
2022/06/05 09:05:24;;;;;;;20.35;3.92;;;;;;;;;;5004140;28;20143;-73
2022/06/05 09:07:56;;;;;;;21.38;4.20;;;;;;;;;;5002143;28;20028;-73
2022/06/05 09:10:22;;;;;;;17.52;3.33;;;;;;;;;;4981274;28;20033;-73
2022/06/05 09:12:51;;;;;;;14.23;3.10;;;;;;;;;;4981108;28;20121;-74
2022/06/05 09:15:26;;;;;;;18.40;3.70;;;;;;;;;;5005280;28;20216;-74
2022/06/05 09:17:55;;;;;;;17.17;3.92;;;;;;;;;;5004392;28;20025;-72
2022/06/05 09:20:26;;;;;;;17.20;3.72;;;;;;;;;;4994841;28;20098;-73
2022/06/05 09:22:59;;;;;;;17.75;3.72;;;;;;;;;;4981503;28;20021;-72
2022/06/05 09:25:39;;;;;;;16.60;4.10;;;;;;;;;;4982951;28;20684;-72
2022/06/05 09:28:14;;;;;;;19.70;4.15;;;;;;;;;;4994837;28;20648;-72
2022/06/05 09:30:51;;;;;;;17.65;3.92;;;;;;;;;;4983650;28;20045;-71
2022/06/05 09:33:23;;;;;;;18.88;4.22;;;;;;;;;;4985743;28;20438;-71
2022/06/05 09:35:55;;;;;;;15.13;3.70;;;;;;;;;;4976467;28;20030;-71
2022/06/05 09:38:28;;;;;;;16.30;4.05;;;;;;;;;;4976563;28;20443;-71
2022/06/05 09:40:54;;;;;;;16.77;3.83;;;;;;;;;;4995767;28;20041;-72
2022/06/05 09:43:26;;;;;;;18.80;3.88;;;;;;;;;;4996502;28;20032;-72
2022/06/05 09:45:53;;;;;;;15.85;3.55;;;;;;;;;;4997022;28;20156;-72
2022/06/05 09:48:31;;;;;;;20.10;4.10;;;;;;;;;;4995197;28;20044;-72
2022/06/05 09:50:57;;;;;;;15.50;3.67;;;;;;;;;;4998695;28;20327;-72
2022/06/05 09:53:32;;;;;;;16.33;3.90;;;;;;;;;;4977324;28;20440;-71
2022/06/05 09:56:30;;;;;;;19.05;4.68;;;;;;;;;;4995396;28;20507;-71
2022/06/05 09:59:17;;;;;;;18.35;4.10;;;;;;;;;;4896272;29;20647;-71
2022/06/05 10:01:54;;;;;;;13.35;2.78;;;;;;;;;;4892151;29;20572;-71
2022/06/05 10:04:28;;;;;;;17.55;3.75;;;;;;;;;;4897341;29;20517;-71
2022/06/05 10:07:05;;;;;;;16.98;3.95;;;;;;;;;;4899572;29;20031;-71
2022/06/05 10:09:34;;;;;;;14.38;3.67;;;;;;;;;;4894966;29;20362;-72
2022/06/05 10:12:07;;;;;;;13.20;3.20;;;;;;;;;;4896317;29;20043;-73
2022/06/05 10:14:54;;;;;;;14.32;3.35;;;;;;;;;;4880761;29;20080;-72
2022/06/05 10:17:39;;;;;;;16.33;3.78;;;;;;;;;;4882493;29;20047;-71
2022/06/05 10:20:08;;;;;;;20.00;3.63;;;;;;;;;;4897395;29;20040;-71
2022/06/05 10:22:50;;;;;;;15.27;3.55;;;;;;;;;;4878120;29;20389;-71
2022/06/05 10:25:35;;;;;;;16.13;3.40;;;;;;;;;;4899228;29;20127;-72
2022/06/05 10:28:09;;;;;;;15.27;3.20;;;;;;;;;;4901556;29;20032;-72
2022/06/05 10:30:48;;;;;;;14.52;3.53;;;;;;;;;;4878136;29;20656;-72
2022/06/05 10:33:21;;;;;;;13.55;3.10;;;;;;;;;;4897776;29;20087;-72
2022/06/05 10:35:58;;;;;;;16.40;3.60;;;;;;;;;;4935906;28;20072;-71
2022/06/05 10:38:42;;;;;;;17.30;3.65;;;;;;;;;;4989264;28;20034;-72
2022/06/05 10:41:27;;;;;;;14.00;3.60;;;;;;;;;;4980569;28;20043;-71
2022/06/05 10:44:10;;;;;;;15.82;3.55;;;;;;;;;;4982635;28;20033;-71
2022/06/05 10:46:40;;;;;;;14.90;3.47;;;;;;;;;;4991035;28;20392;-70
2022/06/05 10:49:20;;;;;;;10.93;2.72;;;;;;;;;;4992599;28;20030;-73
2022/06/05 10:51:57;;;;;;;14.73;3.30;;;;;;;;;;4981279;28;20685;-71
2022/06/05 10:54:47;;;;;;;13.93;2.92;;;;;;;;;;4997285;28;20317;-71
2022/06/05 10:57:17;;;;;;;15.63;3.97;;;;;;;;;;4984231;28;20045;-71
2022/06/05 10:59:55;;;;;;;16.52;3.42;;;;;;;;;;4971954;28;20618;-71
2022/06/05 11:02:40;;;;;;;14.10;2.92;;;;;;;;;;4977040;28;20029;-71
2022/06/05 11:05:19;;;;;;;11.83;3.13;;;;;;;;;;4982145;28;20028;-71
2022/06/05 11:07:45;;;;;;;13.70;3.08;;;;;;;;;;4994301;28;20978;-70
2022/06/05 11:10:14;;;;;;;15.98;3.10;;;;;;;;;;5002735;28;20037;-71
2022/06/05 11:15:53;;;;;;;14.15;3.22;;;;;;;;;;4999554;28;20322;-71
2022/06/05 11:18:40;;;;;;;11.20;2.70;;;;;;;;;;4999418;28;20091;-71
2022/06/05 11:21:06;;;;;;;13.15;2.80;;;;;;;;;;4988014;28;20387;-71
2022/06/05 11:23:38;;;;;;;12.85;3.25;;;;;;;;;;5002305;28;20030;-71
2022/06/05 11:26:20;;;;;;;13.50;2.75;;;;;;;;;;4985089;28;20025;-71
2022/06/05 11:28:59;;;;;;;12.50;2.97;;;;;;;;;;4999571;28;20097;-73
2022/06/05 11:31:31;;;;;;;12.55;3.28;;;;;;;;;;5000915;28;20543;-72
2022/06/05 11:34:03;;;;;;;14.60;4.13;;;;;;;;;;5002658;28;20030;-71
2022/06/05 11:36:34;;;;;;;16.00;3.50;;;;;;;;;;4994899;28;20033;-70
2022/06/05 11:39:12;;;;;;;14.38;3.40;;;;;;;;;;5001600;28;20101;-71
2022/06/05 11:41:43;;;;;;;15.77;3.72;;;;;;;;;;4994401;28;20029;-70
2022/06/05 11:44:18;;;;;;;14.82;3.20;;;;;;;;;;4998924;28;20025;-70
2022/06/05 11:46:52;;;;;;;11.82;3.08;;;;;;;;;;4980394;28;20129;-70
2022/06/05 11:49:40;;;;;;;14.55;3.60;;;;;;;;;;5000778;28;20041;-73
2022/06/05 11:52:25;;;;;;;14.30;3.58;;;;;;;;;;4980425;28;20873;-72
2022/06/05 11:55:02;;;;;;;12.60;3.30;;;;;;;;;;4982428;28;20703;-70
2022/06/05 11:57:39;;;;;;;12.40;3.03;;;;;;;;;;4992755;28;20118;-70
2022/06/05 12:00:08;;;;;;;12.48;3.08;;;;;;;;;;4999619;28;20026;-70
2022/06/05 12:02:51;;;;;;;17.42;3.78;;;;;;;;;;4977671;28;20042;-71
2022/06/05 12:05:38;;;;;;;12.05;3.20;;;;;;;;;;5004949;28;20040;-70
2022/06/05 12:08:26;;;;;;;11.57;3.35;;;;;;;;;;4990057;28;20040;-73
2022/06/05 12:11:04;;;;;;;12.73;3.55;;;;;;;;;;4972134;28;20041;-73
2022/06/05 12:13:45;;;;;;;15.80;3.25;;;;;;;;;;5002944;28;20037;-73
2022/06/05 12:16:33;;;;;;;16.60;3.45;;;;;;;;;;5004692;28;20198;-71
2022/06/05 12:19:23;;;;;;;15.70;3.30;;;;;;;;;;5001269;28;20041;-72
2022/06/05 12:22:08;;;;;;;12.80;2.95;;;;;;;;;;4906168;29;20047;-72
2022/06/05 12:24:53;;;;;;;14.82;3.42;;;;;;;;;;4905385;29;20043;-73
2022/06/05 12:27:21;;;;;;;12.77;3.20;;;;;;;;;;4905797;29;20060;-73
2022/06/05 12:29:53;;;;;;;15.35;3.30;;;;;;;;;;4897893;29;20035;-73
2022/06/05 12:32:30;;;;;;;12.65;3.58;;;;;;;;;;4892901;29;20457;-72
2022/06/05 12:35:05;;;;;;;13.25;3.72;;;;;;;;;;4901040;29;20032;-74
2022/06/05 12:37:39;;;;;;;15.15;3.97;;;;;;;;;;4900725;29;20125;-73
2022/06/05 12:40:15;;;;;;;18.13;4.25;;;;;;;;;;4900993;29;20067;-72
2022/06/05 12:42:55;;;;;;;15.60;4.03;;;;;;;;;;4901127;29;20597;-72
2022/06/05 12:45:27;;;;;;;15.38;3.05;;;;;;;;;;4903043;29;20316;-72
2022/06/05 12:48:11;;;;;;;16.73;3.53;;;;;;;;;;4903857;29;20035;-72
2022/06/05 12:51:00;;;;;;;14.63;3.50;;;;;;;;;;4899809;29;20043;-72
2022/06/05 12:53:36;;;;;;;15.05;3.67;;;;;;;;;;4882122;29;20817;-72
2022/06/05 12:56:02;;;;;;;15.23;3.38;;;;;;;;;;4907040;29;20031;-73
2022/06/05 12:58:45;;;;;;;13.95;3.58;;;;;;;;;;4928423;28;20054;-72
2022/06/05 13:01:16;;;;;;;13.60;3.38;;;;;;;;;;5001786;28;20033;-74
2022/06/05 13:03:46;;;;;;;12.45;3.28;;;;;;;;;;5001551;28;20021;-72
2022/06/05 13:06:34;;;;;;;13.00;3.42;;;;;;;;;;5001882;28;20182;-72
2022/06/05 13:09:06;;;;;;;15.80;3.60;;;;;;;;;;4999331;28;20108;-72
2022/06/05 13:11:44;;;;;;;13.93;3.78;;;;;;;;;;4980257;28;20140;-72
2022/06/05 13:14:13;;;;;;;13.75;3.47;;;;;;;;;;4996773;28;20029;-73
2022/06/05 13:16:54;;;;;;;14.75;3.33;;;;;;;;;;4978531;28;20742;-73
2022/06/05 13:19:26;;;;;;;15.13;3.63;;;;;;;;;;5000240;28;20033;-73
2022/06/05 13:22:08;;;;;;;14.18;3.58;;;;;;;;;;5007869;28;20029;-73
2022/06/05 13:24:41;;;;;;;13.32;3.42;;;;;;;;;;4998996;28;20190;-74
2022/06/05 13:27:10;;;;;;;15.27;3.60;;;;;;;;;;4984320;28;20033;-73
2022/06/05 13:29:55;;;;;;;15.90;3.80;;;;;;;;;;4979286;28;20030;-74
2022/06/05 13:32:40;;;;;;;14.25;3.40;;;;;;;;;;5001271;28;20180;-73
2022/06/05 13:35:26;;;;;;;14.18;3.60;;;;;;;;;;4993830;28;20081;-72
2022/06/05 13:38:14;;;;;;;14.38;3.10;;;;;;;;;;4995973;28;20095;-74
2022/06/05 13:41:02;;;;;;;12.60;3.45;;;;;;;;;;4994187;28;20068;-73
2022/06/05 13:43:33;;;;;;;13.85;3.45;;;;;;;;;;4976201;28;20026;-73
2022/06/05 13:46:09;;;;;;;13.27;3.13;;;;;;;;;;4983384;28;20041;-73
2022/06/05 13:48:47;;;;;;;12.68;3.35;;;;;;;;;;4997599;28;20095;-72
2022/06/05 13:51:32;;;;;;;15.70;3.70;;;;;;;;;;5000765;28;20909;-73
2022/06/05 13:54:09;;;;;;;15.13;3.63;;;;;;;;;;4981283;28;20029;-73
2022/06/05 13:56:54;;;;;;;15.18;3.60;;;;;;;;;;4977913;28;20435;-72
2022/06/05 13:59:32;;;;;;;17.45;4.10;;;;;;;;;;4998926;28;20458;-73
2022/06/05 14:02:18;;;;;;;11.65;3.05;;;;;;;;;;4997328;28;20029;-72
2022/06/05 14:05:00;;;;;;;15.35;4.18;;;;;;;;;;4984467;28;20036;-72
2022/06/05 14:07:47;;;;;;;15.48;3.90;;;;;;;;;;4992082;28;20105;-72
2022/06/05 14:10:28;;;;;;;13.25;3.33;;;;;;;;;;4987987;28;20056;-73
2022/06/05 14:13:22;;;;;;;12.88;3.40;;;;;;;;;;4991175;28;20053;-72
2022/06/05 14:15:56;;;;;;;14.95;3.60;;;;;;;;;;4921061;28;20059;-72
2022/06/05 14:18:41;;;;;;;15.90;3.78;;;;;;;;;;4925676;28;20133;-74
2022/06/05 14:21:11;;;;;;;;;;;;;;;;;;4926053;28;20814;-72
2022/06/05 14:23:38;;;;;;;12.90;3.50;;;;;;;;;;4900356;28;19997;-73
2022/06/05 14:26:06;;;;;;;13.73;3.38;;;;;;;;;;4906308;29;20557;-72
2022/06/05 14:28:44;;;;;;;14.60;3.85;;;;;;;;;;4923014;28;20471;-73
2022/06/05 14:31:14;;;;;;;12.43;3.13;;;;;;;;;;4925104;28;20151;-73
2022/06/05 14:33:55;;;;;;;14.80;3.70;;;;;;;;;;4918804;28;20070;-73
2022/06/05 14:36:50;;;;;;;14.15;3.65;;;;;;;;;;4921916;28;20038;-73
2022/06/05 14:39:31;;;;;;;12.40;2.95;;;;;;;;;;4919234;28;20139;-73
2022/06/05 14:42:16;;;;;;;10.90;3.15;;;;;;;;;;4917255;28;20371;-73
2022/06/05 14:45:06;;;;;;;11.90;3.40;;;;;;;;;;4922750;28;20973;-73
2022/06/05 14:47:52;;;;;;;11.82;3.10;;;;;;;;;;4893338;28;20043;-73
2022/06/05 14:50:32;;;;;;;13.68;3.30;;;;;;;;;;4908593;29;20027;-73
2022/06/05 14:53:13;;;;;;;12.90;3.28;;;;;;;;;;4951415;28;20041;-75
2022/06/05 14:58:34;;;;;;;15.10;4.05;;;;;;;;;;4998101;28;20398;-73
2022/06/05 15:01:12;;;;;;;15.02;3.42;;;;;;;;;;4985431;28;20552;-73
2022/06/05 15:03:52;;;;;;;14.50;3.78;;;;;;;;;;4994372;28;20057;-73
2022/06/05 15:06:28;;;;;;;12.35;3.40;;;;;;;;;;4986322;28;20057;-72
2022/06/05 15:09:11;;;;;;;13.60;3.83;;;;;;;;;;4998972;28;20040;-73
2022/06/05 15:11:49;;;;;;;14.88;3.55;;;;;;;;;;4981097;28;20497;-73
2022/06/05 15:14:21;;;;;;;15.57;3.55;;;;;;;;;;4982562;28;20040;-74
2022/06/05 15:16:59;;;;;;;13.30;3.53;;;;;;;;;;4999559;28;20701;-73
2022/06/05 15:19:34;;;;;;;13.45;3.42;;;;;;;;;;5000322;28;20529;-73
2022/06/05 15:22:00;;;;;;;;;;;;;;;;;;5001718;28;20105;-73
2022/06/05 15:24:52;;;;;;;10.05;2.80;;;;;;;;;;4998926;28;19940;-74
2022/06/05 15:27:21;;;;;;;14.15;3.92;;;;;;;;;;4981201;28;20125;-74